createdAt,value
2023-05-22T00:00:09.713Z,99739.06
2023-05-22T00:05:15.197Z,99745.09
2023-05-22T00:10:16.948Z,99734.19
2023-05-22T00:15:18.653Z,99728.78
2023-05-22T00:20:20.315Z,99730.06
2023-05-22T00:25:21.951Z,99728.47
2023-05-22T00:30:23.581Z,99730.13
2023-05-22T00:35:25.289Z,99724.66
2023-05-22T00:40:26.994Z,99728.97
2023-05-22T00:45:29.127Z,99728.09
2023-05-22T00:50:30.874Z,99720.81
2023-05-22T00:55:32.549Z,99714.47
2023-05-22T01:00:40.123Z,99710.97
2023-05-22T01:05:43.518Z,99718.75
2023-05-22T01:10:45.533Z,99719.16
2023-05-22T01:16:10.969Z,99719.16
2023-05-22T01:21:25.541Z,99725.28
2023-05-22T01:26:49.542Z,99729.31
2023-05-22T01:31:55.451Z,99725.75
2023-05-22T01:37:00.349Z,99732.50
2023-05-22T01:42:02.469Z,99735.56
2023-05-22T01:47:05.883Z,99731.75
2023-05-22T01:52:15.490Z,99732.50
2023-05-22T01:57:27.760Z,99739.34
2023-05-22T02:02:30.871Z,99736.59
2023-05-22T02:07:35.337Z,99727.28
2023-05-22T02:12:39.632Z,99729.03
2023-05-22T02:17:41.525Z,99727.75
2023-05-22T02:22:48.244Z,99729.31
2023-05-22T02:27:49.953Z,99720.88
2023-05-22T02:32:51.947Z,99720.97
2023-05-22T02:37:53.751Z,99718.72
2023-05-22T02:42:55.436Z,99721.97
2023-05-22T02:47:57.400Z,99717.59
2023-05-22T02:52:59.173Z,99709.66
2023-05-22T02:58:00.855Z,99709.88
2023-05-22T03:03:02.625Z,99704.59
2023-05-22T03:08:04.479Z,99712.47
2023-05-22T03:13:06.137Z,99708.19
2023-05-22T03:18:07.905Z,99701.47
2023-05-22T03:23:12.528Z,99704.50
2023-05-22T03:28:14.889Z,99702.44
2023-05-22T03:33:16.747Z,99700.50
2023-05-22T03:38:18.759Z,99698.06
2023-05-22T03:43:20.409Z,99689.72
2023-05-22T03:48:22.130Z,99685.44
2023-05-22T03:53:23.833Z,99688.03
2023-05-22T03:58:26.001Z,99688.50
2023-05-22T04:03:28.394Z,99688.69
2023-05-22T04:08:30.901Z,99695.41
2023-05-22T04:13:34.939Z,99692.75
2023-05-22T04:18:36.833Z,99687.28
2023-05-22T04:23:38.741Z,99683.94
2023-05-22T04:28:40.863Z,99690.38
2023-05-22T04:33:42.876Z,99683.63
2023-05-22T04:38:44.926Z,99691.97
2023-05-22T04:43:48.434Z,99691.47
2023-05-22T04:48:51.084Z,99694.84
2023-05-22T04:53:55.694Z,99697.72
2023-05-22T04:58:57.552Z,99691.03
2023-05-22T05:03:59.293Z,99693.59
2023-05-22T05:09:02.187Z,99689.34
2023-05-22T05:14:04.189Z,99689.78
2023-05-22T05:19:05.896Z,99689.53
2023-05-22T05:24:07.884Z,99697.22
2023-05-22T05:29:10.052Z,99692.75
2023-05-22T05:34:22.542Z,99692.72
2023-05-22T05:39:37.065Z,99694.38
2023-05-22T05:44:41.606Z,99704.22
2023-05-22T05:49:43.406Z,99687.56
2023-05-22T05:54:47.523Z,99681.69
2023-05-22T05:59:53.637Z,99680.72
2023-05-22T06:05:15.543Z,99694.88
2023-05-22T06:10:17.620Z,99684.06
2023-05-22T06:15:31.647Z,99676.34
2023-05-22T06:20:33.379Z,99681.13
2023-05-22T06:25:36.024Z,99679.44
2023-05-22T06:30:40.380Z,99670.88
2023-05-22T06:35:47.068Z,99669.28
2023-05-22T06:40:50.047Z,99667.94
2023-05-22T06:45:55.915Z,99665.78
2023-05-22T06:50:57.573Z,99657.38
2023-05-22T06:56:00.482Z,99666.97
2023-05-22T07:01:22.216Z,99655.06
2023-05-22T07:06:42.558Z,99662.94
2023-05-22T07:11:46.152Z,99659.31
2023-05-22T07:16:50.516Z,99650.13
2023-05-22T07:22:00.178Z,99651.84
2023-05-22T07:27:04.476Z,99642.22
2023-05-22T07:32:08.444Z,99635.84
2023-05-22T07:37:12.999Z,99623.84
2023-05-22T07:42:16.437Z,99623.84
2023-05-22T07:47:24.515Z,99627.53
2023-05-22T07:52:26.694Z,99613.63
2023-05-22T07:57:29.997Z,99622.47
2023-05-22T08:02:36.830Z,99608.75
2023-05-22T08:07:38.652Z,99604.59
2023-05-22T08:12:40.441Z,99611.06
2023-05-22T08:17:42.114Z,99604.28
2023-05-22T08:22:43.882Z,99610.28
2023-05-22T08:27:45.577Z,99601.22
2023-05-22T08:32:47.359Z,99601.59
2023-05-22T08:37:49.015Z,99596.41
2023-05-22T08:42:54.372Z,99597.94
2023-05-22T08:47:58.165Z,99599.09
2023-05-22T08:53:04.456Z,99581.91
2023-05-22T08:58:06.808Z,99582.81
2023-05-22T09:03:10.203Z,99573.84
2023-05-22T09:08:19.666Z,99579.38
2023-05-22T09:13:26.434Z,99574.94
2023-05-22T09:18:29.239Z,99570.56
2023-05-22T09:23:30.935Z,99560.41
2023-05-22T09:28:37.283Z,99558.53
2023-05-22T09:33:39.048Z,99558.25
2023-05-22T09:38:41.431Z,99555.97
2023-05-22T09:43:50.847Z,99554.16
2023-05-22T09:48:53.497Z,99557.78
2023-05-22T09:54:03.533Z,99544.28
2023-05-22T09:59:09.918Z,99539.25
2023-05-22T10:04:14.509Z,99537.38
2023-05-22T10:09:19.679Z,99542.09
2023-05-22T10:14:22.457Z,99536.91
2023-05-22T10:19:27.392Z,99531.69
2023-05-22T10:24:31.513Z,99533.50
2023-05-22T10:29:43.215Z,99524.34
2023-05-22T10:34:57.544Z,99527.34
2023-05-22T10:40:05.328Z,99531.63
2023-05-22T10:45:07.920Z,99525.13
2023-05-22T10:50:11.565Z,99517.53
2023-05-22T10:55:13.516Z,99521.03
2023-05-22T11:00:16.227Z,99511.78
2023-05-22T11:05:21.697Z,99501.69
2023-05-22T11:10:27.222Z,99501.31
2023-05-22T11:15:32.501Z,99493.81
2023-05-22T11:20:37.696Z,99496.97
2023-05-22T11:25:41.365Z,99489.53
2023-05-22T11:30:43.481Z,99484.03
2023-05-22T11:35:48.087Z,99475.06
2023-05-22T11:40:52.066Z,99479.34
2023-05-22T11:45:53.745Z,99473.72
2023-05-22T11:50:55.671Z,99467.53
2023-05-22T11:56:05.064Z,99462.00
2023-05-22T12:01:06.820Z,99452.69
2023-05-22T12:06:09.417Z,99454.84
2023-05-22T12:11:14.318Z,99455.16
2023-05-22T12:16:21.986Z,99446.88
2023-05-22T12:21:23.810Z,99443.06
2023-05-22T12:26:25.539Z,99436.63
2023-05-22T12:31:27.415Z,99437.19
2023-05-22T12:36:43.730Z,99435.50
2023-05-22T12:41:46.326Z,99435.75
2023-05-22T12:46:48.132Z,99433.75
2023-05-22T12:51:49.790Z,99439.06
2023-05-22T12:56:51.477Z,99428.09
2023-05-22T13:01:53.979Z,99415.38
2023-05-22T13:06:56.109Z,99416.00
2023-05-22T13:11:57.806Z,99414.25
2023-05-22T13:16:59.473Z,99418.22
2023-05-22T13:22:01.155Z,99411.47
2023-05-22T13:27:02.848Z,99417.16
2023-05-22T13:32:04.857Z,99403.59
2023-05-22T13:37:06.911Z,99395.44
2023-05-22T13:42:08.703Z,99389.97
2023-05-22T13:47:10.514Z,99385.81
2023-05-22T13:52:12.213Z,99382.88
2023-05-22T13:57:13.928Z,99377.41
2023-05-22T14:02:15.672Z,99372.53
2023-05-22T14:07:17.471Z,99369.47
2023-05-22T14:12:19.239Z,99363.84
2023-05-22T14:17:21.041Z,99352.59
2023-05-22T14:22:22.687Z,99362.72
2023-05-22T14:27:24.406Z,99350.69
2023-05-22T14:32:26.095Z,99351.50
2023-05-22T14:37:27.766Z,99352.41
2023-05-22T14:42:29.424Z,99350.38
2023-05-22T14:47:31.144Z,99348.81
2023-05-22T14:52:32.792Z,99341.66
2023-05-22T14:57:34.883Z,99331.72
2023-05-22T15:02:37.258Z,99341.50
2023-05-22T15:07:44.894Z,99335.91
2023-05-22T15:12:47.819Z,99333.94
2023-05-22T15:17:49.522Z,99322.38
2023-05-22T15:22:51.209Z,99322.88
2023-05-22T15:27:53.182Z,99317.03
2023-05-22T15:32:54.857Z,99309.22
2023-05-22T15:37:59.440Z,99321.28
2023-05-22T15:43:03.934Z,99310.34
2023-05-22T15:48:07.290Z,99310.91
2023-05-22T15:53:09.227Z,99314.50
2023-05-22T15:58:13.161Z,99298.88
2023-05-22T16:03:15.455Z,99296.72
2023-05-22T16:08:17.415Z,99290.53
2023-05-22T16:13:19.068Z,99293.75
2023-05-22T16:18:21.718Z,99295.25
2023-05-22T16:23:23.365Z,99295.56
2023-05-22T16:28:25.070Z,99294.25
2023-05-22T16:33:26.828Z,99291.22
2023-05-22T16:38:28.472Z,99297.53
2023-05-22T16:43:30.105Z,99294.50
2023-05-22T16:48:31.756Z,99295.13
2023-05-22T16:53:33.529Z,99285.53
2023-05-22T16:58:35.904Z,99291.84
2023-05-22T17:03:37.881Z,99303.69
2023-05-22T17:08:39.806Z,99297.91
2023-05-22T17:13:41.548Z,99299.22
2023-05-22T17:18:43.325Z,99299.19
2023-05-22T17:23:45.242Z,99294.75
2023-05-22T17:28:47.161Z,99293.66
2023-05-22T17:33:48.864Z,99292.25
2023-05-22T17:38:50.524Z,99294.69
2023-05-22T17:43:52.210Z,99292.50
2023-05-22T17:48:55.276Z,99301.25
2023-05-22T17:53:59.022Z,99312.69
2023-05-22T17:59:01.408Z,99306.00
2023-05-22T18:04:04.857Z,99303.38
2023-05-22T18:09:07.914Z,99305.81
2023-05-22T18:14:09.593Z,99300.75
2023-05-22T18:19:11.250Z,99301.44
2023-05-22T18:24:13.908Z,99297.19
2023-05-22T18:29:15.677Z,99290.88
2023-05-22T18:34:17.506Z,99284.09
2023-05-22T18:39:19.181Z,99285.91
2023-05-22T18:44:23.222Z,99295.41
2023-05-22T18:49:24.913Z,99297.19
2023-05-22T18:54:27.161Z,99294.91
2023-05-22T18:59:28.828Z,99301.59
2023-05-22T19:04:30.545Z,99307.56
2023-05-22T19:09:32.312Z,99312.09
2023-05-22T19:14:33.979Z,99319.63
2023-05-22T19:19:35.797Z,99325.25
2023-05-22T19:24:37.467Z,99313.28
2023-05-22T19:29:39.119Z,99324.00
2023-05-22T19:34:41.041Z,99317.09
2023-05-22T19:39:42.730Z,99326.56
2023-05-22T19:44:44.369Z,99326.00
2023-05-22T19:49:46.086Z,99331.59
2023-05-22T19:54:47.739Z,99337.31
2023-05-22T19:59:50.673Z,99348.19
2023-05-22T20:04:52.404Z,99338.94
2023-05-22T20:09:54.087Z,99338.56
2023-05-22T20:14:55.862Z,99339.13
2023-05-22T20:19:58.756Z,99340.03
2023-05-22T20:25:01.490Z,99329.03
2023-05-22T20:30:03.646Z,99337.88
2023-05-22T20:35:06.956Z,99332.19
2023-05-22T20:40:12.055Z,99330.28
2023-05-22T20:45:14.847Z,99336.16
2023-05-22T20:50:18.056Z,99326.66
2023-05-22T20:55:19.768Z,99324.03
2023-05-22T21:00:22.140Z,99320.47
2023-05-22T21:05:23.837Z,99326.38
2023-05-22T21:10:26.174Z,99321.91
2023-05-22T21:15:27.845Z,99326.19
2023-05-22T21:20:29.488Z,99325.81
2023-05-22T21:25:31.211Z,99324.88
2023-05-22T21:30:32.842Z,99317.88
2023-05-22T21:35:34.513Z,99314.41
2023-05-22T21:40:36.194Z,99314.53
2023-05-22T21:45:38.941Z,99311.84
2023-05-22T21:50:40.837Z,99307.13
2023-05-22T21:55:42.711Z,99311.91
2023-05-22T22:00:44.388Z,99323.84
2023-05-22T22:05:46.037Z,99333.81
2023-05-22T22:10:47.714Z,99338.78
2023-05-22T22:15:49.676Z,99326.84
2023-05-22T22:20:54.171Z,99325.19
2023-05-22T22:25:56.196Z,99317.72
2023-05-22T22:30:58.497Z,99317.63
2023-05-22T22:36:00.295Z,99325.63
2023-05-22T22:41:01.987Z,99322.78
2023-05-22T22:46:03.705Z,99326.84
2023-05-22T22:51:05.452Z,99320.72
2023-05-22T22:56:07.122Z,99315.88
2023-05-22T23:01:08.791Z,99311.31
2023-05-22T23:06:10.623Z,99309.31
2023-05-22T23:11:12.276Z,99319.53
2023-05-22T23:16:14.004Z,99315.47
2023-05-22T23:21:15.663Z,99316.59
2023-05-22T23:26:17.371Z,99307.06
2023-05-22T23:31:19.383Z,99309.56
2023-05-22T23:36:21.126Z,99311.97
2023-05-22T23:41:24.493Z,99303.53
2023-05-22T23:46:26.242Z,99308.56
2023-05-22T23:51:27.901Z,99299.81
2023-05-22T23:56:29.631Z,99289.72
